Time;durP1;ratioP1;P1;durP2;ratioP2;P2;SDS_P1;SDS_P2;PMS_P1;PMS_P2;Temp;Humidity;BMP_temperature;BMP_pressure;BME280_temperature;BME280_humidity;BME280_pressure;Samples;Min_cycle;Max_cycle;Signal;HPM_P1;HPM_P2
2024/01/04 00:00:45;;;;;;;;;2.00;2.00;;;;;-143.90;100.00;73960.91;4861163;28;104395;-72
2024/01/04 00:03:12;;;;;;;;;4.25;3.00;;;;;-143.90;100.00;73954.72;4860453;28;102601;-72
2024/01/04 00:05:38;;;;;;;;;2.00;1.25;;;;;-143.90;100.00;73965.03;4859966;28;104037;-72
2024/01/04 00:08:05;;;;;;;;;3.75;2.00;;;;;-143.90;100.00;73965.03;4858123;28;102499;-72
2024/01/04 00:10:32;;;;;;;;;1.75;1.00;;;;;-143.90;100.00;73973.31;4860090;28;105694;-72
2024/01/04 00:12:58;;;;;;;;;3.00;2.00;;;;;-143.90;100.00;73969.19;4861584;28;102330;-73
2024/01/04 00:15:25;;;;;;;;;2.00;2.00;;;;;-143.90;100.00;73965.03;4857408;28;102560;-74
2024/01/04 00:17:52;;;;;;;;;2.75;1.75;;;;;-143.90;100.00;73965.03;4862174;28;102369;-73
2024/01/04 00:20:18;;;;;;;;;4.00;3.00;;;;;-143.90;100.00;73965.03;4848617;28;103973;-72
2024/01/04 00:22:45;;;;;;;;;1.00;1.00;;;;;-143.90;100.00;73971.25;4862323;28;102637;-73
2024/01/04 00:25:12;;;;;;;;;3.00;2.00;;;;;-143.90;100.00;73973.31;4860110;28;102281;-74
2024/01/04 00:27:39;;;;;;;;;6.25;2.00;;;;;-143.90;100.00;73971.25;4862571;28;102059;-73
2024/01/04 00:30:06;;;;;;;;;3.00;3.00;;;;;-143.90;100.00;73960.91;4855392;28;104054;-74
2024/01/04 00:32:33;;;;;;;;;5.00;2.25;;;;;-143.90;100.00;73973.31;4858928;28;102566;-74
2024/01/04 00:35:00;;;;;;;;;3.00;2.25;;;;;-143.90;100.00;73979.50;4859708;28;102417;-74
2024/01/04 00:37:26;;;;;;;;;5.00;3.00;;;;;-143.90;100.00;73977.44;4865079;28;104087;-73
2024/01/04 00:39:53;;;;;;;;;2.50;2.50;;;;;-143.90;100.00;73981.56;4859628;28;106592;-73
2024/01/04 00:42:20;;;;;;;;;2.75;2.75;;;;;-143.90;100.00;73975.38;4849979;28;104202;-73
2024/01/04 00:44:46;;;;;;;;;1.00;1.00;;;;;-143.90;100.00;73975.38;4857952;28;102514;-72
2024/01/04 00:47:13;;;;;;;;;2.75;2.00;;;;;-143.90;100.00;73983.66;4858848;28;102152;-73
2024/01/04 00:49:39;;;;;;;;;1.50;1.25;;;;;-143.90;100.00;73979.50;4857877;28;103836;-73
2024/01/04 00:52:06;;;;;;;;;2.25;2.25;;;;;-143.90;100.00;73981.56;4852161;28;104448;-73
2024/01/04 00:54:33;;;;;;;;;2.50;1.75;;;;;-143.90;100.00;73985.72;4841286;28;102556;-74
2024/01/04 00:57:00;;;;;;;;;3.00;3.00;;;;;-143.90;100.00;73985.72;4861416;28;102727;-72
2024/01/04 00:59:26;;;;;;;;;2.00;2.00;;;;;-143.90;100.00;73981.56;4861598;28;104100;-73
2024/01/04 01:01:53;;;;;;;;;2.75;2.50;;;;;-143.90;100.00;73981.56;4859546;28;102549;-72
2024/01/04 01:04:20;;;;;;;;;1.50;1.50;;;;;-143.90;100.00;73977.44;4850448;28;102458;-73
2024/01/04 01:06:46;;;;;;;;;2.75;1.25;;;;;-143.90;100.00;73977.44;4862307;28;102425;-72
2024/01/04 01:09:14;;;;;;;;;3.25;2.00;;;;;-143.90;100.00;73977.44;4856811;28;104908;-73
2024/01/04 01:11:41;;;;;;;;;1.50;1.50;;;;;-143.90;100.00;73975.38;4859478;28;102521;-73
2024/01/04 01:14:08;;;;;;;;;1.50;1.50;;;;;-143.90;100.00;73965.03;4849052;28;103511;-73
2024/01/04 01:16:35;;;;;;;;;2.00;1.25;;;;;-143.90;100.00;73969.19;4861865;28;102639;-72
2024/01/04 01:19:02;;;;;;;;;1.00;1.00;;;;;-143.90;100.00;73969.19;4861385;28;104068;-73
2024/01/04 01:21:30;;;;;;;;;2.00;2.00;;;;;-143.90;100.00;73960.91;4845562;28;103075;-73
2024/01/04 01:23:56;;;;;;;;;1.00;1.00;;;;;-143.90;100.00;73965.03;4859503;28;102644;-72
2024/01/04 01:26:23;;;;;;;;;2.75;1.75;;;;;-143.90;100.00;73965.03;4847264;28;102386;-73
2024/01/04 01:28:50;;;;;;;;;2.25;2.00;;;;;-143.90;100.00;73971.25;4859058;28;104101;-72
2024/01/04 01:31:17;;;;;;;;;2.00;2.00;;;;;-143.90;100.00;73965.03;4858655;28;101893;-72
2024/01/04 01:33:44;;;;;;;;;2.00;1.75;;;;;-143.90;100.00;73969.19;4850777;28;105143;-73
2024/01/04 01:36:11;;;;;;;;;4.00;2.00;;;;;-143.90;100.00;73965.03;4849672;28;104402;-73
2024/01/04 01:38:38;;;;;;;;;3.75;2.50;;;;;-143.90;100.00;73958.84;4856709;28;104283;-72
2024/01/04 01:41:05;;;;;;;;;0.00;0.00;;;;;-143.90;100.00;73958.84;4855815;28;102398;-74
2024/01/04 01:43:32;;;;;;;;;2.25;2.00;;;;;-143.90;100.00;73960.91;4856039;28;102138;-73
2024/01/04 01:45:58;;;;;;;;;2.25;2.00;;;;;-143.90;100.00;73965.03;4863875;28;104712;-72
2024/01/04 01:48:25;;;;;;;;;4.00;3.00;;;;;-143.90;100.00;73962.97;4847481;28;109078;-72
2024/01/04 01:50:53;;;;;;;;;2.00;2.00;;;;;-143.90;100.00;73969.19;4861535;28;102401;-74
2024/01/04 01:53:20;;;;;;;;;4.00;4.00;;;;;-143.90;100.00;73965.03;4859934;28;102526;-72
2024/01/04 01:55:47;;;;;;;;;2.00;2.00;;;;;-143.90;100.00;73958.84;4859161;28;104008;-72
2024/01/04 01:58:14;;;;;;;;;3.00;2.00;;;;;-143.90;100.00;73962.97;4847720;28;104176;-72
2024/01/04 02:00:41;;;;;;;;;3.75;3.00;;;;;-143.90;100.00;73952.63;4856518;28;103377;-72
2024/01/04 02:03:08;;;;;;;;;1.00;1.00;;;;;-143.90;100.00;73940.25;4857598;28;102409;-73
2024/01/04 02:05:35;;;;;;;;;2.00;0.25;;;;;-143.90;100.00;73944.38;4858989;28;102296;-73
2024/01/04 02:08:02;;;;;;;;;1.75;1.00;;;;;-143.90;100.00;73948.50;4852534;28;104011;-73
2024/01/04 02:10:30;;;;;;;;;2.00;1.00;;;;;-143.90;100.00;73948.50;4855811;28;102413;-73
2024/01/04 02:12:56;;;;;;;;;0.75;0.75;;;;;-143.90;100.00;73948.50;4863038;28;102644;-73
2024/01/04 02:15:23;;;;;;;;;1.25;1.00;;;;;-143.90;100.00;73956.78;4861750;28;102515;-73
2024/01/04 02:17:50;;;;;;;;;1.00;1.00;;;;;-143.90;100.00;73960.91;4860065;28;104287;-72
2024/01/04 02:20:17;;;;;;;;;1.25;1.00;;;;;-143.90;100.00;73973.31;4842822;28;104255;-72
2024/01/04 02:22:44;;;;;;;;;2.00;1.00;;;;;-143.90;100.00;73977.44;4858141;28;104705;-73
2024/01/04 02:25:11;;;;;;;;;3.00;1.75;;;;;-143.90;100.00;73983.66;4858970;28;102519;-73
2024/01/04 02:27:40;;;;;;;;;2.50;1.00;;;;;-143.90;100.00;73989.84;4841114;28;103837;-72
2024/01/04 02:30:08;;;;;;;;;1.00;1.00;;;;;-143.90;100.00;73998.13;4843529;28;102556;-73
2024/01/04 02:32:35;;;;;;;;;1.00;1.00;;;;;-143.90;100.00;74006.38;4858642;28;102386;-73
2024/01/04 02:35:02;;;;;;;;;1.00;1.00;;;;;-143.90;100.00;74014.66;4862502;28;102708;-73
2024/01/04 02:37:28;;;;;;;;;1.00;1.00;;;;;-143.90;100.00;74014.66;4859973;28;104365;-73
2024/01/04 02:39:55;;;;;;;;;1.75;1.75;;;;;-143.90;100.00;74020.84;4858917;28;102151;-72
2024/01/04 02:42:22;;;;;;;;;1.50;0.50;;;;;-143.90;100.00;74018.78;4847801;28;104020;-73
2024/01/04 02:44:48;;;;;;;;;1.50;1.50;;;;;-143.90;100.00;74020.84;4854673;28;102324;-73
2024/01/04 02:47:15;;;;;;;;;1.25;1.00;;;;;-143.90;100.00;74031.19;4862159;28;104097;-73
2024/01/04 02:49:42;;;;;;;;;1.00;1.00;;;;;-143.90;100.00;74037.38;4846582;28;102598;-72
2024/01/04 02:52:10;;;;;;;;;1.00;0.00;;;;;-143.90;100.00;74041.50;4846225;28;102345;-73
2024/01/04 02:54:38;;;;;;;;;2.50;1.25;;;;;-143.90;100.00;74043.59;4854468;28;102542;-72
2024/01/04 02:57:04;;;;;;;;;2.00;1.75;;;;;-143.90;100.00;74051.84;4844084;28;104417;-72
2024/01/04 02:59:31;;;;;;;;;1.00;0.00;;;;;-143.90;100.00;74049.78;4854884;28;103226;-73
2024/01/04 03:01:58;;;;;;;;;1.00;1.00;;;;;-143.90;100.00;74035.31;4861608;28;102738;-72
2024/01/04 03:04:24;;;;;;;;;1.00;1.00;;;;;-143.90;100.00;74035.31;4844514;28;102467;-72
2024/01/04 03:06:51;;;;;;;;;1.00;1.00;;;;;-143.90;100.00;74029.13;4855549;28;104159;-74
2024/01/04 03:09:17;;;;;;;;;1.00;1.00;;;;;-143.90;100.00;74029.13;4859342;28;104664;-73
2024/01/04 03:11:45;;;;;;;;;1.25;1.25;;;;;-143.90;100.00;74029.13;4858383;28;102236;-73
2024/01/04 03:14:12;;;;;;;;;1.00;1.00;;;;;-143.90;100.00;74027.03;4834720;28;102509;-72
2024/01/04 03:16:38;;;;;;;;;0.00;0.00;;;;;-143.90;100.00;74027.03;4856884;28;104332;-72
2024/01/04 03:19:05;;;;;;;;;1.00;1.00;;;;;-143.90;100.00;74022.91;4846410;28;102079;-72
2024/01/04 03:21:31;;;;;;;;;0.00;0.00;;;;;-143.90;100.00;74020.84;4857387;28;102479;-73
2024/01/04 03:23:58;;;;;;;;;0.00;0.00;;;;;-143.90;100.00;74012.56;4865995;28;101998;-72
2024/01/04 03:26:25;;;;;;;;;0.75;0.00;;;;;-143.90;100.00;74014.66;4847512;28;104061;-72
2024/01/04 03:28:51;;;;;;;;;1.00;0.25;;;;;-143.90;100.00;74027.03;4857868;28;102471;-73
2024/01/04 03:31:18;;;;;;;;;0.00;0.00;;;;;-143.90;100.00;74022.91;4863138;28;102292;-73
2024/01/04 03:33:45;;;;;;;;;0.75;0.75;;;;;-143.90;100.00;74018.78;4858852;28;102891;-73
2024/01/04 03:36:14;;;;;;;;;1.00;1.00;;;;;-143.90;100.00;74029.13;4849531;28;103954;-73
2024/01/04 03:38:41;;;;;;;;;1.00;1.00;;;;;-143.90;100.00;74033.25;4859102;28;101926;-72
2024/01/04 03:41:08;;;;;;;;;1.00;1.00;;;;;-143.90;100.00;74031.19;4861424;28;103083;-74
2024/01/04 03:43:34;;;;;;;;;1.00;1.00;;;;;-143.90;100.00;74031.19;4865177;28;102280;-72
2024/01/04 03:46:04;;;;;;;;;1.00;1.00;;;;;-143.90;100.00;74031.19;4863041;28;108914;-73
2024/01/04 03:48:32;;;;;;;;;1.00;1.00;;;;;-143.90;100.00;74031.19;4855654;28;102458;-73
2024/01/04 03:50:59;;;;;;;;;1.50;1.00;;;;;-143.90;100.00;74031.19;4856538;28;102321;-73
2024/01/04 03:53:26;;;;;;;;;3.00;1.00;;;;;-143.90;100.00;74031.19;4863997;28;102819;-73
2024/01/04 03:55:53;;;;;;;;;1.25;1.00;;;;;-143.90;100.00;74022.91;4862721;28;104088;-73
2024/01/04 03:58:19;;;;;;;;;2.25;1.50;;;;;-143.90;100.00;74035.31;4850538;28;102335;-73
2024/01/04 04:00:50;;;;;;;;;1.75;1.00;;;;;-143.90;100.00;74033.25;4860250;28;101868;-73
2024/01/04 04:03:18;;;;;;;;;1.25;1.25;;;;;-143.90;100.00;74035.31;4860515;28;101985;-73
2024/01/04 04:05:45;;;;;;;;;1.25;1.25;;;;;-143.90;100.00;74037.38;4860312;28;103735;-73
2024/01/04 04:08:12;;;;;;;;;2.25;2.25;;;;;-143.90;100.00;74037.38;4852980;28;102374;-73
2024/01/04 04:10:40;;;;;;;;;3.50;1.50;;;;;-143.90;100.00;74031.19;4860967;28;101982;-73
2024/01/04 04:13:07;;;;;;;;;1.75;1.75;;;;;-143.90;100.00;74037.38;4857206;28;102591;-73
2024/01/04 04:15:34;;;;;;;;;2.00;2.00;;;;;-143.90;100.00;74039.44;4861968;28;104732;-73
2024/01/04 04:18:01;;;;;;;;;3.00;1.75;;;;;-143.90;100.00;74037.38;4857519;28;102492;-73
2024/01/04 04:20:28;;;;;;;;;1.00;1.00;;;;;-143.90;100.00;74043.59;4854307;28;102140;-73
2024/01/04 04:22:55;;;;;;;;;1.50;1.00;;;;;-143.90;100.00;74043.59;4853664;28;102171;-73
2024/01/04 04:25:22;;;;;;;;;2.00;1.50;;;;;-143.90;100.00;74039.44;4862280;28;104385;-73
2024/01/04 04:27:49;;;;;;;;;1.25;1.00;;;;;-143.90;100.00;74039.44;4854047;28;102474;-73
2024/01/04 04:30:19;;;;;;;;;1.50;1.00;;;;;-143.90;100.00;74035.31;4847221;28;103898;-73
2024/01/04 04:32:46;;;;;;;;;1.00;1.00;;;;;-143.90;100.00;74043.59;4862385;28;102351;-73
2024/01/04 04:35:13;;;;;;;;;1.00;1.00;;;;;-143.90;100.00;74043.59;4860516;28;103967;-73
2024/01/04 04:37:40;;;;;;;;;3.25;1.00;;;;;-143.90;100.00;74051.84;4860345;28;104967;-74
2024/01/04 04:40:07;;;;;;;;;3.00;1.25;;;;;-143.90;100.00;74049.78;4853876;28;102796;-73
2024/01/04 04:42:38;;;;;;;;;1.00;1.00;;;;;-143.90;100.00;74051.84;4860296;28;102519;-73
2024/01/04 04:45:05;;;;;;;;;1.00;1.00;;;;;-143.90;100.00;74047.72;4860348;28;104165;-73
2024/01/04 04:47:32;;;;;;;;;1.75;1.00;;;;;-143.90;100.00;74060.13;4865018;28;102532;-73
2024/01/04 04:49:58;;;;;;;;;1.00;1.00;;;;;-143.90;100.00;74060.13;4860470;28;102306;-75
2024/01/04 04:52:26;;;;;;;;;2.00;2.00;;;;;-143.90;100.00;74060.13;4850805;28;102520;-72
2024/01/04 04:54:52;;;;;;;;;3.75;2.00;;;;;-143.90;100.00;74066.31;4859218;28;104048;-73
2024/01/04 04:57:19;;;;;;;;;2.00;2.00;;;;;-143.90;100.00;74072.50;4854650;28;104005;-73
2024/01/04 04:59:46;;;;;;;;;1.50;1.25;;;;;-143.90;100.00;74072.50;4845332;28;102250;-74
2024/01/04 05:02:13;;;;;;;;;1.75;1.00;;;;;-143.90;100.00;74074.59;4834820;28;102747;-72
2024/01/04 05:04:39;;;;;;;;;2.00;1.75;;;;;-143.90;100.00;74074.59;4854808;28;105307;-74
2024/01/04 05:07:06;;;;;;;;;4.00;2.00;;;;;-143.90;100.00;74078.72;4855554;28;102474;-73
2024/01/04 05:09:32;;;;;;;;;2.00;2.00;;;;;-143.90;100.00;74082.84;4863373;28;102324;-73
2024/01/04 05:11:59;;;;;;;;;3.00;3.00;;;;;-143.90;100.00;74099.38;4847144;28;105171;-72
2024/01/04 05:14:25;;;;;;;;;3.50;2.00;;;;;-143.90;100.00;74107.66;4844300;28;104391;-73
2024/01/04 05:16:52;;;;;;;;;0.75;0.75;;;;;-143.90;100.00;74115.91;4857816;28;102537;-72
2024/01/04 05:19:18;;;;;;;;;1.00;1.00;;;;;-143.90;100.00;74109.72;4862134;28;102381;-73
2024/01/04 05:21:48;;;;;;;;;1.00;1.00;;;;;-143.90;100.00;74124.19;4861300;28;103583;-73
2024/01/04 05:24:15;;;;;;;;;0.75;0.75;;;;;-143.90;100.00;74136.59;4849274;28;104158;-72
2024/01/04 05:26:42;;;;;;;;;0.25;0.25;;;;;-143.90;100.00;74146.91;4855354;28;102664;-72
2024/01/04 05:29:09;;;;;;;;;1.00;0.00;;;;;-143.90;100.00;74161.38;4856878;28;102752;-73
2024/01/04 05:31:36;;;;;;;;;0.00;0.00;;;;;-143.90;100.00;74180.00;4864639;28;102535;-73
2024/01/04 05:34:03;;;;;;;;;0.00;0.00;;;;;-143.90;100.00;74188.25;4854364;28;104561;-75
2024/01/04 05:42:26;;;;;;;;;1.25;0.00;;;;;-143.90;100.00;74211.00;4793680;29;104508;-74
2024/01/04 05:44:53;;;;;;;;;0.00;0.00;;;;;-143.90;100.00;74227.53;4804560;28;104512;-74
2024/01/04 05:47:19;;;;;;;;;0.50;0.00;;;;;-143.90;100.00;74233.72;4802760;29;102426;-75
2024/01/04 05:49:46;;;;;;;;;0.00;0.00;;;;;-143.90;100.00;74229.59;4797309;28;102502;-75
2024/01/04 05:52:13;;;;;;;;;1.00;0.50;;;;;-143.90;100.00;74248.19;4790348;28;102264;-74
2024/01/04 05:54:39;;;;;;;;;0.00;0.00;;;;;-143.90;100.00;74258.53;4794704;29;104443;-75
2024/01/04 05:57:07;;;;;;;;;0.00;0.00;;;;;-143.90;100.00;74256.47;4805194;28;102481;-73
2024/01/04 05:59:34;;;;;;;;;1.00;1.00;;;;;-143.90;100.00;74262.66;4805378;29;102434;-75
2024/01/04 06:02:01;;;;;;;;;1.00;1.00;;;;;-143.90;100.00;74262.66;4804729;29;102064;-74
2024/01/04 06:04:28;;;;;;;;;2.00;1.00;;;;;-143.90;100.00;74258.53;4799407;28;104371;-74
2024/01/04 06:06:55;;;;;;;;;3.75;2.00;;;;;-143.90;100.00;74262.66;4803066;29;103201;-74
2024/01/04 06:09:22;;;;;;;;;4.75;3.00;;;;;-143.90;100.00;74262.66;4810254;29;104018;-74
2024/01/04 06:11:50;;;;;;;;;3.00;3.00;;;;;-143.90;100.00;74266.81;4809371;28;102046;-73
2024/01/04 06:14:18;;;;;;;;;3.00;2.00;;;;;-143.90;100.00;74262.66;4798829;29;104333;-73
2024/01/04 06:16:45;;;;;;;;;3.75;3.25;;;;;-143.90;100.00;74262.66;4803266;29;102179;-74
2024/01/04 06:19:11;;;;;;;;;2.50;2.00;;;;;-143.90;100.00;74250.25;4807953;29;103311;-73
2024/01/04 06:21:41;;;;;;;;;3.50;3.00;;;;;-143.90;100.00;74254.41;4808577;28;102223;-74
2024/01/04 06:24:09;;;;;;;;;7.75;7.75;;;;;-143.90;100.00;74260.59;4801343;29;103726;-74
2024/01/04 06:26:36;;;;;;;;;6.75;5.00;;;;;-143.90;100.00;74260.59;4801131;29;102091;-73
2024/01/04 06:29:02;;;;;;;;;6.50;6.25;;;;;-143.90;100.00;74258.53;4804701;29;102152;-74
2024/01/04 06:31:29;;;;;;;;;10.00;6.00;;;;;-143.90;100.00;74262.66;4810661;28;104763;-73
2024/01/04 06:33:56;;;;;;;;;8.75;8.00;;;;;-143.90;100.00;74258.53;4808735;29;104223;-73
2024/01/04 06:36:23;;;;;;;;;12.00;8.00;;;;;-143.90;100.00;74260.59;4794606;28;102621;-73
2024/01/04 06:38:50;;;;;;;;;14.00;13.75;;;;;-143.90;100.00;74260.59;4803614;28;102035;-73
2024/01/04 06:41:19;;;;;;;;;12.75;12.75;;;;;-143.90;100.00;74256.47;4815095;28;102329;-73
2024/01/04 06:43:46;;;;;;;;;13.25;8.50;;;;;-143.90;100.00;74258.53;4826578;29;104054;-74
2024/01/04 06:46:14;;;;;;;;;9.00;6.75;;;;;-143.90;100.00;74246.13;4822177;29;102554;-73
2024/01/04 06:48:41;;;;;;;;;6.25;5.00;;;;;-143.90;100.00;74242.00;4825872;29;102227;-73
2024/01/04 06:51:09;;;;;;;;;9.25;7.75;;;;;-143.90;100.00;74248.19;4829201;29;104152;-73
2024/01/04 06:53:35;;;;;;;;;6.75;5.00;;;;;-143.90;100.00;74235.78;4826344;28;108614;-73
2024/01/04 06:56:04;;;;;;;;;6.00;4.00;;;;;-143.90;100.00;74233.72;4825763;28;102372;-73
2024/01/04 06:58:31;;;;;;;;;8.00;6.25;;;;;-143.90;100.00;74229.59;4825059;28;102227;-73
2024/01/04 07:00:57;;;;;;;;;11.00;11.00;;;;;-143.90;100.00;74237.88;4828974;28;102093;-72
2024/01/04 07:03:25;;;;;;;;;13.25;9.75;;;;;-143.90;100.00;74223.41;4828108;28;104785;-72
2024/01/04 07:05:51;;;;;;;;;8.75;7.75;;;;;-143.90;100.00;74217.19;4829791;28;102433;-72
2024/01/04 07:08:18;;;;;;;;;8.00;7.25;;;;;-143.90;100.00;74225.47;4818602;28;102645;-72
2024/01/04 07:10:45;;;;;;;;;10.75;8.50;;;;;-143.90;100.00;74221.31;4818448;28;102139;-72
2024/01/04 07:13:11;;;;;;;;;8.75;8.75;;;;;-143.90;100.00;74211.00;4824956;29;104203;-73
2024/01/04 07:15:39;;;;;;;;;10.75;9.00;;;;;-143.90;100.00;74213.06;4829568;28;102764;-73
2024/01/04 07:18:06;;;;;;;;;8.25;8.00;;;;;-143.90;100.00;74215.13;4820774;28;101936;-74
2024/01/04 07:20:33;;;;;;;;;5.50;5.50;;;;;-143.90;100.00;74206.88;4829236;29;102604;-73
2024/01/04 07:23:00;;;;;;;;;6.00;4.50;;;;;-143.90;100.00;74213.06;4826389;29;104159;-72
2024/01/04 07:25:26;;;;;;;;;7.00;6.00;;;;;-143.90;100.00;74208.94;4834168;29;103483;-73
2024/01/04 07:27:53;;;;;;;;;8.00;7.25;;;;;-143.90;100.00;74211.00;4827428;28;102406;-72
2024/01/04 07:30:20;;;;;;;;;7.00;7.00;;;;;-143.90;100.00;74204.78;4821018;28;102466;-73
2024/01/04 07:32:47;;;;;;;;;10.00;10.00;;;;;-143.90;100.00;74206.88;4827589;28;104270;-72
2024/01/04 07:35:15;;;;;;;;;9.75;8.00;;;;;-143.90;100.00;74196.53;4827887;28;102787;-73
2024/01/04 07:37:44;;;;;;;;;10.50;9.00;;;;;-143.90;100.00;74206.88;4829567;28;102292;-74
2024/01/04 07:40:11;;;;;;;;;9.00;8.00;;;;;-143.90;100.00;74208.94;4822562;28;102834;-74
2024/01/04 07:42:40;;;;;;;;;12.50;10.00;;;;;-143.90;100.00;74204.78;4819382;28;108865;-73
2024/01/04 07:45:07;;;;;;;;;7.00;3.75;;;;;-143.90;100.00;74200.66;4828377;28;101941;-73
2024/01/04 07:47:36;;;;;;;;;6.00;6.00;;;;;-143.90;100.00;74213.06;4824522;29;102329;-74
2024/01/04 07:50:07;;;;;;;;;11.50;9.50;;;;;-143.90;100.00;74211.00;4824515;28;102713;-74
2024/01/04 07:52:34;;;;;;;;;11.75;8.25;;;;;-143.90;100.00;74204.78;4824936;28;106167;-73
2024/01/04 07:55:00;;;;;;;;;12.00;9.00;;;;;-143.90;100.00;74204.78;4828179;29;104768;-73
2024/01/04 07:57:31;;;;;;;;;7.00;7.00;;;;;-143.90;100.00;74211.00;4827933;29;102062;-73
2024/01/04 07:59:58;;;;;;;;;10.25;9.25;;;;;-143.90;100.00;74202.72;4829452;29;103232;-74
2024/01/04 08:02:28;;;;;;;;;12.00;7.50;;;;;-143.90;100.00;74200.66;4807558;28;103993;-73
2024/01/04 08:04:56;;;;;;;;;12.50;11.50;;;;;-143.90;100.00;74206.88;4830040;28;102692;-74
2024/01/04 08:07:23;;;;;;;;;11.75;8.75;;;;;-143.90;100.00;74204.78;4829773;28;102123;-74
2024/01/04 08:09:49;;;;;;;;;8.50;8.25;;;;;-143.90;100.00;74206.88;4829472;28;102837;-74
2024/01/04 08:12:16;;;;;;;;;7.50;7.00;;;;;-143.90;100.00;74188.25;4818449;28;104186;-74
2024/01/04 08:14:43;;;;;;;;;9.25;6.75;;;;;-143.90;100.00;74188.25;4829800;28;101980;-73
2024/01/04 08:17:09;;;;;;;;;8.00;8.00;;;;;-143.90;100.00;74188.25;4830677;28;102020;-74
2024/01/04 08:19:36;;;;;;;;;11.25;6.50;;;;;-143.90;100.00;74190.31;4830733;28;102392;-74
2024/01/04 08:22:03;;;;;;;;;3.00;3.00;;;;;-143.90;100.00;74188.25;4823786;28;103624;-75
2024/01/04 08:24:30;;;;;;;;;4.25;4.00;;;;;-143.90;100.00;74188.25;4822446;28;106266;-74
2024/01/04 08:26:58;;;;;;;;;3.00;2.00;;;;;-143.90;100.00;74175.84;4828983;29;102432;-73
2024/01/04 08:29:24;;;;;;;;;6.00;6.00;;;;;-143.90;100.00;74184.13;4826270;29;102535;-73
2024/01/04 08:31:51;;;;;;;;;10.00;6.00;;;;;-143.90;100.00;74177.94;4826047;28;104046;-74
2024/01/04 08:34:18;;;;;;;;;8.50;7.50;;;;;-143.90;100.00;74177.94;4808758;28;105156;-73
2024/01/04 08:36:45;;;;;;;;;7.00;6.00;;;;;-143.90;100.00;74182.06;4824671;28;102800;-74
2024/01/04 08:39:12;;;;;;;;;8.00;5.50;;;;;-143.90;100.00;74175.84;4827671;28;102609;-74
2024/01/04 08:41:38;;;;;;;;;8.25;8.00;;;;;-143.90;100.00;74165.53;4830611;28;103910;-74
2024/01/04 08:44:05;;;;;;;;;8.25;8.00;;;;;-143.90;100.00;74171.72;4823573;28;102051;-73
2024/01/04 08:46:37;;;;;;;;;9.25;7.00;;;;;-143.90;100.00;74169.66;4818812;28;103455;-73
2024/01/04 08:49:04;;;;;;;;;12.75;10.00;;;;;-143.90;100.00;74184.13;4813951;28;102529;-73
2024/01/04 08:51:33;;;;;;;;;14.75;11.75;;;;;-143.90;100.00;74175.84;4818043;28;104352;-74
2024/01/04 08:53:59;;;;;;;;;14.75;13.50;;;;;-143.90;100.00;74171.72;4805477;28;103200;-74
2024/01/04 08:56:26;;;;;;;;;9.50;8.25;;;;;-143.90;100.00;74169.66;4813604;28;102718;-74
2024/01/04 08:58:53;;;;;;;;;14.75;12.75;;;;;-143.90;100.00;74171.72;4829184;28;102400;-74
2024/01/04 09:01:19;;;;;;;;;11.75;8.25;;;;;-143.90;100.00;74171.72;4826955;28;104223;-74
2024/01/04 09:03:46;;;;;;;;;7.25;6.00;;;;;-143.90;100.00;74163.47;4828260;29;102316;-74
2024/01/04 09:06:13;;;;;;;;;7.50;4.00;;;;;-143.90;100.00;74155.19;4820184;28;101961;-74
2024/01/04 09:08:40;;;;;;;;;7.00;6.25;;;;;-143.90;100.00;74149.00;4831979;28;102770;-74
2024/01/04 09:11:06;;;;;;;;;8.75;7.00;;;;;-143.90;100.00;74142.78;4830279;29;108852;-74
2024/01/04 09:13:33;;;;;;;;;7.00;5.00;;;;;-143.90;100.00;74126.25;4830446;28;102560;-74
2024/01/04 09:16:00;;;;;;;;;8.50;6.50;;;;;-143.90;100.00;74122.13;4828803;28;102377;-73
2024/01/04 09:18:26;;;;;;;;;6.25;4.00;;;;;-143.90;100.00;74126.25;4810815;28;102199;-74
2024/01/04 09:20:53;;;;;;;;;6.75;5.50;;;;;-143.90;100.00;74142.78;4830793;28;104047;-74
2024/01/04 09:23:20;;;;;;;;;5.75;4.00;;;;;-143.90;100.00;74144.84;4821128;28;103200;-74
2024/01/04 09:25:46;;;;;;;;;5.75;3.25;;;;;-143.90;100.00;74134.53;4819762;28;102553;-72
2024/01/04 09:28:13;;;;;;;;;7.25;6.25;;;;;-143.90;100.00;74136.59;4810348;28;108024;-73
2024/01/04 09:30:40;;;;;;;;;3.00;2.75;;;;;-143.90;100.00;74134.53;4829023;28;104023;-74
2024/01/04 09:33:07;;;;;;;;;2.25;2.00;;;;;-143.90;100.00;74122.13;4826047;28;102512;-72
2024/01/04 09:35:34;;;;;;;;;3.75;3.75;;;;;-143.90;100.00;74115.91;4815999;28;102291;-73
2024/01/04 09:38:01;;;;;;;;;3.50;3.50;;;;;-143.90;100.00;74122.13;4825399;28;102402;-72
2024/01/04 09:40:29;;;;;;;;;4.50;4.00;;;;;-143.90;100.00;74122.13;4816966;29;104405;-72
2024/01/04 09:42:56;;;;;;;;;1.75;1.75;;;;;-143.90;100.00;74142.78;4827780;28;102309;-73
2024/01/04 09:45:29;;;;;;;;;3.75;3.00;;;;;-143.90;100.00;74140.72;4826479;28;102168;-73
2024/01/04 09:47:59;;;;;;;;;2.00;2.00;;;;;-143.90;100.00;74144.84;4825585;29;102265;-73
2024/01/04 09:50:26;;;;;;;;;4.00;3.25;;;;;-143.90;100.00;74146.91;4815738;28;104142;-73
2024/01/04 09:52:55;;;;;;;;;2.00;2.00;;;;;-143.90;100.00;74155.19;4827171;28;102402;-73
2024/01/04 09:55:23;;;;;;;;;3.00;3.00;;;;;-143.90;100.00;74171.72;4826258;28;102030;-74
2024/01/04 09:57:50;;;;;;;;;6.00;3.25;;;;;-143.90;100.00;74169.66;4829996;28;102489;-74
2024/01/04 10:00:18;;;;;;;;;3.50;3.25;;;;;-143.90;100.00;74177.94;4808160;28;104087;-74
2024/01/04 10:02:45;;;;;;;;;2.00;1.75;;;;;-143.90;100.00;74202.72;4830090;28;102550;-74
2024/01/04 10:05:15;;;;;;;;;3.50;3.00;;;;;-143.90;100.00;74200.66;4828786;28;101946;-73
2024/01/04 10:07:52;;;;;;;;;3.00;3.00;;;;;-143.90;100.00;74206.88;4827887;28;106022;-73
2024/01/04 10:10:21;;;;;;;;;3.00;3.00;;;;;-143.90;100.00;74196.53;4812681;28;109467;-74
2024/01/04 10:12:48;;;;;;;;;2.75;2.00;;;;;-143.90;100.00;74221.31;4816705;28;102358;-73
2024/01/04 10:15:17;;;;;;;;;3.00;2.00;;;;;-143.90;100.00;74233.72;4826580;28;103070;-74
2024/01/04 10:17:45;;;;;;;;;3.00;3.00;;;;;-143.90;100.00;74233.72;4830194;29;103018;-73
2024/01/04 10:20:16;;;;;;;;;1.75;1.00;;;;;-143.90;100.00;74213.06;4816574;28;104347;-73
2024/01/04 10:22:43;;;;;;;;;4.00;3.00;;;;;-143.90;100.00;74225.47;4827101;28;102166;-74
2024/01/04 10:25:11;;;;;;;;;6.50;4.00;;;;;-143.90;100.00;74237.88;4827882;28;102416;-73
2024/01/04 10:27:39;;;;;;;;;6.75;4.50;;;;;-143.90;100.00;74227.53;4828379;29;102139;-73
2024/01/04 10:30:07;;;;;;;;;7.25;6.25;;;;;-143.90;100.00;74239.94;4820700;29;104196;-73
2024/01/04 10:32:34;;;;;;;;;6.75;6.00;;;;;-143.90;100.00;74235.78;4825135;28;102322;-73
2024/01/04 10:35:08;;;;;;;;;6.00;4.00;;;;;-143.90;100.00;74235.78;4825060;28;102291;-74
2024/01/04 10:37:36;;;;;;;;;8.25;6.50;;;;;-143.90;100.00;74233.72;4827644;28;102139;-73
2024/01/04 10:40:05;;;;;;;;;7.00;5.50;;;;;-143.90;100.00;74233.72;4821415;28;103302;-75
2024/01/04 10:42:33;;;;;;;;;7.25;6.25;;;;;-143.90;100.00;74229.59;4776694;29;102519;-73
2024/01/04 10:44:59;;;;;;;;;10.00;8.75;;;;;-143.90;100.00;74213.06;4803978;29;102655;-73
2024/01/04 10:47:27;;;;;;;;;9.00;8.25;;;;;-143.90;100.00;74206.88;4807962;29;102055;-73
2024/01/04 10:49:58;;;;;;;;;9.00;7.00;;;;;-143.90;100.00;74204.78;4806239;28;104006;-73
2024/01/04 10:52:33;;;;;;;;;7.75;7.00;;;;;-143.90;100.00;74208.94;4794036;29;102568;-74
2024/01/04 10:55:02;;;;;;;;;7.00;6.25;;;;;-143.90;100.00;74213.06;4806263;29;102054;-73
2024/01/04 10:57:31;;;;;;;;;7.50;4.50;;;;;-143.90;100.00;74217.19;4809108;29;101912;-74
2024/01/04 11:00:03;;;;;;;;;5.75;5.50;;;;;-143.90;100.00;74225.47;4808311;29;104126;-74
2024/01/04 11:02:31;;;;;;;;;6.75;4.00;;;;;-143.90;100.00;74213.06;4781607;29;102043;-73
2024/01/04 11:04:59;;;;;;;;;6.00;4.00;;;;;-143.90;100.00;74211.00;4802419;29;102436;-73